createdAt,value
2022-10-22T00:00:08.738Z,5.10
2022-10-22T00:02:36.023Z,6.83
2022-10-22T00:05:04.232Z,6.32
2022-10-22T00:07:31.661Z,5.80
2022-10-22T00:09:59.137Z,6.20
2022-10-22T00:12:26.873Z,7.35
2022-10-22T00:14:54.024Z,5.13
2022-10-22T00:17:21.520Z,6.82
2022-10-22T00:19:48.849Z,7.40
2022-10-22T00:22:16.288Z,4.88
2022-10-22T00:24:44.043Z,6.85
2022-10-22T00:27:12.389Z,8.53
2022-10-22T00:29:39.950Z,7.00
2022-10-22T00:32:07.786Z,6.32
2022-10-22T00:34:35.087Z,5.60
2022-10-22T00:37:02.238Z,6.40
2022-10-22T00:39:29.819Z,6.00
2022-10-22T00:41:58.231Z,7.15
2022-10-22T00:45:03.081Z,6.57
2022-10-22T00:47:39.686Z,5.10
2022-10-22T00:50:12.128Z,6.20
2022-10-22T00:52:40.217Z,5.83
2022-10-22T00:55:08.002Z,6.18
2022-10-22T00:57:35.830Z,6.00
2022-10-22T01:00:04.767Z,7.43
2022-10-22T01:02:39.796Z,6.43
2022-10-22T01:05:07.634Z,6.83
2022-10-22T01:07:41.129Z,6.30
2022-10-22T01:10:12.639Z,6.07
2022-10-22T01:12:58.325Z,6.85
2022-10-22T01:15:34.033Z,7.63
2022-10-22T01:18:10.624Z,5.90
2022-10-22T01:20:49.905Z,6.38
2022-10-22T01:23:50.779Z,8.68
2022-10-22T01:26:32.507Z,6.40
2022-10-22T01:29:07.616Z,7.35
2022-10-22T01:31:45.646Z,8.53
2022-10-22T01:34:15.267Z,6.82
2022-10-22T01:36:42.954Z,7.13
2022-10-22T01:39:11.048Z,6.35
2022-10-22T01:41:39.400Z,9.88
2022-10-22T01:44:06.516Z,5.23
2022-10-22T01:46:33.946Z,8.13
2022-10-22T01:49:28.054Z,7.78
2022-10-22T01:52:34.225Z,6.07
2022-10-22T01:55:28.340Z,6.57
2022-10-22T01:58:03.630Z,7.43
2022-10-22T02:00:30.856Z,5.72
2022-10-22T02:03:04.930Z,9.35
2022-10-22T02:05:41.297Z,7.07
2022-10-22T02:08:10.501Z,7.47
2022-10-22T02:10:39.653Z,8.63
2022-10-22T02:13:13.453Z,7.13
2022-10-22T02:15:42.052Z,7.43
2022-10-22T02:18:09.808Z,7.85
2022-10-22T02:20:38.921Z,9.70
2022-10-22T02:23:06.206Z,6.57
2022-10-22T02:25:39.758Z,7.63
2022-10-22T02:28:16.982Z,6.18
2022-10-22T02:30:48.194Z,6.15
2022-10-22T02:33:22.107Z,5.82
2022-10-22T02:35:49.937Z,7.90
2022-10-22T02:38:17.496Z,6.53
2022-10-22T02:40:44.924Z,6.90
2022-10-22T02:43:12.034Z,5.75
2022-10-22T02:45:39.159Z,8.98
2022-10-22T02:48:06.484Z,9.40
2022-10-22T02:50:33.660Z,6.80
2022-10-22T02:53:00.781Z,8.30
2022-10-22T02:55:28.037Z,6.85
2022-10-22T02:57:55.128Z,7.70
2022-10-22T03:00:22.661Z,6.70
2022-10-22T03:02:49.889Z,5.70
2022-10-22T03:05:17.081Z,9.55
2022-10-22T03:07:44.241Z,6.57
2022-10-22T03:10:11.398Z,8.77
2022-10-22T03:12:38.557Z,8.83
2022-10-22T03:15:06.099Z,7.97
2022-10-22T03:17:33.195Z,7.55
2022-10-22T03:20:00.295Z,6.30
2022-10-22T03:22:29.291Z,8.60
2022-10-22T03:24:59.387Z,9.47
2022-10-22T03:27:28.400Z,7.43
2022-10-22T03:29:57.021Z,7.15
2022-10-22T03:32:24.253Z,8.93
2022-10-22T03:34:51.456Z,6.15
2022-10-22T03:37:18.729Z,8.40
2022-10-22T03:39:46.044Z,9.38
2022-10-22T03:42:13.539Z,8.85
2022-10-22T03:44:41.149Z,10.75
2022-10-22T03:47:08.337Z,9.77
2022-10-22T03:49:35.922Z,9.50
2022-10-22T03:52:11.859Z,8.18
2022-10-22T03:54:40.049Z,6.90
2022-10-22T03:57:07.242Z,7.95
2022-10-22T03:59:42.720Z,6.05
2022-10-22T04:02:11.024Z,10.03
2022-10-22T04:04:39.594Z,9.70
2022-10-22T04:07:07.307Z,6.63
2022-10-22T04:09:35.086Z,6.40
2022-10-22T04:12:02.314Z,6.38
2022-10-22T04:14:29.422Z,9.23
2022-10-22T04:16:56.568Z,6.90
2022-10-22T04:19:23.752Z,9.27
2022-10-22T04:21:50.875Z,8.48
2022-10-22T04:24:18.147Z,8.10
2022-10-22T04:26:45.301Z,8.37
2022-10-22T04:29:15.959Z,9.27
2022-10-22T04:31:43.684Z,6.68
2022-10-22T04:34:10.841Z,9.40
2022-10-22T04:36:38.074Z,9.38
2022-10-22T04:39:06.099Z,10.13
2022-10-22T04:41:36.137Z,8.52
2022-10-22T04:44:03.916Z,9.55
2022-10-22T04:46:33.511Z,7.47
2022-10-22T04:49:01.071Z,16.25
2022-10-22T04:51:28.296Z,7.50
2022-10-22T04:53:55.418Z,7.78
2022-10-22T04:56:25.574Z,7.63
2022-10-22T04:59:15.183Z,7.28
2022-10-22T05:01:44.097Z,7.80
2022-10-22T05:04:13.170Z,7.47
2022-10-22T05:06:40.461Z,12.07
2022-10-22T05:09:13.975Z,8.40
2022-10-22T05:11:45.325Z,8.55
2022-10-22T05:14:12.582Z,9.55
2022-10-22T05:16:40.032Z,8.33
2022-10-22T05:19:08.068Z,8.82
2022-10-22T05:21:37.615Z,9.07
2022-10-22T05:24:05.100Z,11.68
2022-10-22T05:26:32.244Z,8.43
2022-10-22T05:28:59.424Z,7.93
2022-10-22T05:31:28.773Z,8.82
2022-10-22T05:33:55.937Z,6.90
2022-10-22T05:36:23.385Z,6.85
2022-10-22T05:38:50.638Z,9.18
2022-10-22T05:41:25.339Z,7.67
2022-10-22T05:43:55.775Z,6.53
2022-10-22T05:46:24.538Z,7.03
2022-10-22T05:48:56.698Z,8.38
2022-10-22T05:51:24.783Z,8.43
2022-10-22T05:53:55.818Z,6.50
2022-10-22T05:56:23.344Z,8.77
2022-10-22T05:58:50.741Z,8.68
2022-10-22T06:01:29.055Z,8.70
2022-10-22T06:04:00.725Z,11.55
2022-10-22T06:06:34.060Z,10.50
2022-10-22T06:09:16.478Z,9.07
2022-10-22T06:11:43.661Z,8.65
2022-10-22T06:14:11.066Z,9.60
2022-10-22T06:16:38.537Z,7.90
2022-10-22T06:19:05.702Z,7.13
2022-10-22T06:21:33.130Z,7.45
2022-10-22T06:24:01.028Z,8.55
2022-10-22T06:26:28.379Z,8.75
2022-10-22T06:28:56.177Z,7.82
2022-10-22T06:31:24.108Z,8.40
2022-10-22T06:33:51.240Z,8.35
2022-10-22T06:36:20.559Z,8.38
2022-10-22T06:38:47.877Z,7.45
2022-10-22T06:41:16.377Z,6.78
2022-10-22T06:43:47.709Z,6.67
2022-10-22T06:46:19.837Z,8.55
2022-10-22T06:48:55.302Z,7.05
2022-10-22T06:51:22.587Z,10.27
2022-10-22T06:53:49.939Z,7.28
2022-10-22T06:56:19.140Z,6.83
2022-10-22T06:58:53.593Z,7.15
2022-10-22T07:01:23.372Z,6.70
2022-10-22T07:03:51.864Z,5.50
2022-10-22T07:06:20.164Z,7.35
2022-10-22T07:08:47.476Z,7.60
2022-10-22T07:11:19.655Z,8.18
2022-10-22T07:13:47.035Z,9.07
2022-10-22T07:16:14.722Z,6.35
2022-10-22T07:18:42.249Z,6.78
2022-10-22T07:21:11.307Z,5.93
2022-10-22T07:23:38.595Z,5.55
2022-10-22T07:26:07.492Z,7.38
2022-10-22T07:28:39.829Z,6.53
2022-10-22T07:31:08.879Z,4.63
2022-10-22T07:33:36.241Z,5.07
2022-10-22T07:36:06.707Z,5.55
2022-10-22T07:38:35.027Z,6.55
2022-10-22T07:41:02.787Z,5.88
2022-10-22T07:43:29.823Z,5.22
2022-10-22T07:45:56.874Z,5.77
2022-10-22T07:48:24.089Z,5.32
2022-10-22T07:50:51.497Z,5.70
2022-10-22T07:53:18.898Z,5.82
2022-10-22T07:55:49.008Z,6.78
2022-10-22T07:58:17.382Z,4.53
2022-10-22T08:00:45.081Z,6.85
2022-10-22T08:03:13.179Z,5.00
2022-10-22T08:05:40.967Z,4.82
2022-10-22T08:08:08.058Z,5.63
2022-10-22T08:10:35.345Z,4.87
2022-10-22T08:13:02.649Z,5.05
2022-10-22T08:15:30.223Z,6.40
2022-10-22T08:17:57.304Z,4.47
2022-10-22T08:20:24.693Z,3.90
2022-10-22T08:22:51.976Z,5.93
2022-10-22T08:25:19.143Z,6.40
2022-10-22T08:27:46.248Z,7.72
2022-10-22T08:30:13.856Z,7.10
2022-10-22T08:32:41.788Z,6.60
2022-10-22T08:35:09.844Z,7.87
2022-10-22T08:37:37.519Z,5.55
2022-10-22T08:40:08.855Z,7.78
2022-10-22T08:42:45.148Z,6.20
2022-10-22T08:45:15.809Z,6.30
2022-10-22T08:48:01.398Z,5.80
2022-10-22T08:50:46.976Z,7.65
2022-10-22T08:53:56.734Z,5.30
2022-10-22T08:56:24.408Z,7.50
2022-10-22T08:59:19.092Z,4.60
2022-10-22T09:01:50.099Z,5.10
2022-10-22T09:04:44.419Z,4.80
2022-10-22T09:07:11.477Z,4.88
2022-10-22T09:09:42.754Z,3.97
2022-10-22T09:12:19.343Z,3.92
2022-10-22T09:14:47.514Z,4.77
2022-10-22T09:17:44.516Z,3.88
2022-10-22T09:20:16.945Z,2.88
2022-10-22T09:23:06.295Z,3.92
2022-10-22T09:25:36.015Z,4.78
2022-10-22T09:28:03.790Z,4.13
2022-10-22T09:30:35.155Z,2.70
2022-10-22T09:33:07.098Z,2.97
2022-10-22T09:35:44.082Z,2.03
2022-10-22T09:38:13.703Z,3.30
2022-10-22T09:40:52.181Z,2.50
2022-10-22T09:43:19.825Z,3.50
2022-10-22T09:45:48.193Z,2.85
2022-10-22T09:48:15.139Z,4.68
2022-10-22T09:50:48.172Z,2.38
2022-10-22T09:53:23.672Z,2.80
2022-10-22T09:58:28.785Z,3.10
2022-10-22T10:00:57.887Z,3.35
2022-10-22T10:03:28.643Z,2.45
2022-10-22T10:06:02.988Z,1.93
2022-10-22T10:08:33.490Z,2.63
2022-10-22T10:11:25.527Z,3.05
2022-10-22T10:14:07.466Z,3.25
2022-10-22T10:16:55.981Z,3.28
2022-10-22T10:19:26.924Z,2.77
2022-10-22T10:22:18.795Z,10.05
2022-10-22T10:24:51.075Z,3.22
2022-10-22T10:27:54.816Z,3.85
2022-10-22T10:30:25.927Z,2.28
2022-10-22T10:33:16.299Z,2.37
2022-10-22T10:35:49.000Z,2.40
2022-10-22T10:38:34.942Z,2.90
2022-10-22T10:41:23.815Z,3.55
2022-10-22T10:43:58.421Z,5.50
2022-10-22T10:46:41.216Z,3.77
2022-10-22T10:49:17.470Z,3.35
2022-10-22T10:52:17.398Z,2.95
2022-10-22T10:55:03.930Z,5.05
2022-10-22T10:57:52.786Z,3.22
2022-10-22T11:00:21.212Z,4.03
2022-10-22T11:03:10.315Z,3.80
2022-10-22T11:06:00.353Z,2.65
2022-10-22T11:08:32.696Z,2.72
2022-10-22T11:11:11.540Z,2.55
2022-10-22T11:13:42.840Z,2.97
2022-10-22T11:16:31.163Z,3.42
2022-10-22T11:19:46.054Z,2.78
2022-10-22T11:22:27.143Z,3.03
2022-10-22T11:25:05.343Z,2.13
2022-10-22T11:27:42.954Z,2.13
2022-10-22T11:30:19.698Z,2.72
2022-10-22T11:32:52.998Z,2.83
2022-10-22T11:35:25.819Z,3.53
2022-10-22T11:37:55.454Z,5.68
2022-10-22T11:40:33.029Z,2.33
2022-10-22T11:43:08.048Z,3.65
2022-10-22T11:45:37.935Z,2.20
2022-10-22T11:48:11.230Z,2.83
2022-10-22T11:50:41.019Z,2.33
2022-10-22T11:53:13.807Z,2.83
2022-10-22T11:55:48.594Z,2.78
2022-10-22T11:58:32.320Z,2.35
2022-10-22T12:01:02.131Z,2.60
2022-10-22T12:03:32.200Z,3.30
2022-10-22T12:06:05.042Z,3.53
2022-10-22T12:08:33.159Z,2.85
2022-10-22T12:11:06.493Z,2.67
2022-10-22T12:14:09.786Z,2.63
2022-10-22T12:16:56.556Z,2.45
2022-10-22T12:19:37.550Z,4.17
2022-10-22T12:22:07.633Z,3.10
2022-10-22T12:24:38.527Z,2.15
2022-10-22T12:27:25.857Z,2.97
2022-10-22T12:29:58.125Z,2.47
2022-10-22T12:32:36.332Z,2.53
2022-10-22T12:35:08.617Z,3.50
2022-10-22T12:37:37.168Z,3.00
2022-10-22T12:40:18.756Z,3.10
2022-10-22T12:43:14.418Z,2.17
2022-10-22T12:45:44.023Z,2.37
2022-10-22T12:48:17.663Z,2.17
2022-10-22T12:50:53.454Z,2.22
2022-10-22T12:53:32.870Z,2.58
2022-10-22T12:56:03.020Z,2.50
2022-10-22T12:58:36.655Z,2.23
2022-10-22T13:01:04.364Z,3.80
2022-10-22T13:03:42.376Z,2.28
2022-10-22T13:06:14.048Z,1.98
2022-10-22T13:08:41.443Z,2.42
2022-10-22T13:11:10.973Z,2.50
2022-10-22T13:13:38.023Z,2.45
2022-10-22T13:16:25.671Z,3.60
2022-10-22T13:18:54.107Z,2.50
2022-10-22T13:21:33.487Z,1.83
2022-10-22T13:24:03.058Z,2.57
2022-10-22T13:26:37.427Z,1.50
2022-10-22T13:29:10.705Z,2.67
2022-10-22T13:31:46.529Z,1.95
2022-10-22T13:34:17.416Z,2.75
2022-10-22T13:36:44.619Z,3.30
2022-10-22T13:39:20.888Z,1.55
2022-10-22T13:41:50.503Z,3.75
2022-10-22T13:44:18.530Z,2.22
2022-10-22T13:46:47.226Z,1.83
2022-10-22T13:49:16.876Z,2.60
2022-10-22T13:51:44.216Z,2.47
2022-10-22T13:54:19.925Z,2.70
2022-10-22T13:56:47.001Z,2.22
2022-10-22T13:59:15.409Z,2.55
2022-10-22T14:01:45.043Z,3.63
2022-10-22T14:04:13.695Z,2.88
2022-10-22T14:06:40.777Z,3.83
2022-10-22T14:09:11.930Z,4.00
2022-10-22T14:11:39.106Z,2.00
2022-10-22T14:14:08.987Z,3.13
2022-10-22T14:16:37.756Z,2.85
2022-10-22T14:19:07.570Z,4.15
2022-10-22T14:21:36.953Z,4.55
2022-10-22T14:24:06.118Z,2.70
2022-10-22T14:26:35.540Z,9.90
2022-10-22T14:29:11.698Z,2.40
2022-10-22T14:34:14.287Z,1.67
2022-10-22T14:36:43.684Z,4.00
2022-10-22T14:39:11.366Z,2.93
2022-10-22T14:41:38.474Z,2.63
2022-10-22T14:44:05.772Z,2.42
2022-10-22T14:46:32.933Z,2.40
2022-10-22T14:48:59.997Z,3.50
2022-10-22T14:51:27.026Z,3.57
2022-10-22T14:53:54.054Z,4.18
2022-10-22T14:56:21.431Z,3.50
2022-10-22T14:58:49.046Z,3.05
2022-10-22T15:01:16.440Z,3.95
2022-10-22T15:03:43.640Z,10.90
2022-10-22T15:06:10.777Z,4.15
2022-10-22T15:08:38.082Z,3.58
2022-10-22T15:11:07.740Z,3.47
2022-10-22T15:13:35.450Z,4.80
2022-10-22T15:16:06.348Z,4.70
2022-10-22T15:18:33.438Z,3.92
2022-10-22T15:21:02.896Z,5.03
2022-10-22T15:23:30.398Z,4.20
2022-10-22T15:25:57.593Z,4.15
2022-10-22T15:28:25.056Z,5.00
2022-10-22T15:31:00.270Z,4.95
2022-10-22T15:33:28.860Z,2.95
2022-10-22T15:35:56.472Z,4.15
2022-10-22T15:38:32.615Z,5.15
2022-10-22T15:41:05.526Z,4.80
2022-10-22T15:43:33.961Z,4.18
2022-10-22T15:46:11.694Z,4.20
2022-10-22T15:48:38.836Z,4.35
2022-10-22T15:51:13.663Z,5.03
2022-10-22T15:53:40.806Z,5.33
2022-10-22T15:56:08.811Z,4.05
2022-10-22T15:58:35.882Z,7.05
2022-10-22T16:01:11.891Z,4.82
2022-10-22T16:03:39.268Z,4.65
2022-10-22T16:06:07.041Z,4.90
2022-10-22T16:08:34.223Z,4.68
2022-10-22T16:11:01.416Z,5.57
2022-10-22T16:13:28.665Z,6.55
2022-10-22T16:15:55.731Z,6.65
2022-10-22T16:18:23.636Z,3.93
2022-10-22T16:20:50.753Z,5.38
2022-10-22T16:23:18.992Z,3.70
2022-10-22T16:25:46.742Z,5.13
2022-10-22T16:28:14.334Z,9.48
2022-10-22T16:30:41.752Z,5.10
2022-10-22T16:33:10.396Z,5.28
2022-10-22T16:35:41.736Z,6.93
2022-10-22T16:38:10.587Z,6.95
2022-10-22T16:40:38.014Z,5.60
2022-10-22T16:43:05.714Z,6.13
2022-10-22T16:45:32.840Z,5.72
2022-10-22T16:47:59.939Z,9.60
2022-10-22T16:50:27.043Z,4.25
2022-10-22T16:52:54.212Z,7.80
2022-10-22T16:55:21.292Z,5.73
2022-10-22T16:57:52.265Z,5.30
2022-10-22T17:00:20.249Z,6.38
2022-10-22T17:02:53.788Z,7.10
2022-10-22T17:05:21.470Z,4.78
2022-10-22T17:07:48.667Z,7.87
2022-10-22T17:10:17.137Z,7.45
2022-10-22T17:12:44.530Z,8.27
2022-10-22T17:15:12.141Z,7.45
2022-10-22T17:17:39.462Z,7.68
2022-10-22T17:20:07.009Z,6.70
2022-10-22T17:22:34.125Z,7.43
2022-10-22T17:25:06.916Z,9.02
2022-10-22T17:27:33.995Z,6.93
2022-10-22T17:30:01.048Z,9.18
2022-10-22T17:32:29.895Z,6.20
2022-10-22T17:34:57.007Z,8.88
2022-10-22T17:37:24.086Z,8.77
2022-10-22T17:39:51.307Z,7.40
2022-10-22T17:42:18.420Z,10.02
2022-10-22T17:44:45.491Z,8.97
2022-10-22T17:47:12.578Z,6.18
2022-10-22T17:49:39.785Z,7.68
2022-10-22T17:52:07.051Z,6.22
2022-10-22T17:54:34.218Z,8.90
2022-10-22T17:57:01.276Z,6.87
2022-10-22T17:59:28.525Z,5.32
2022-10-22T18:01:59.414Z,6.85
2022-10-22T18:04:27.591Z,8.77
2022-10-22T18:06:54.920Z,6.15
2022-10-22T18:09:22.132Z,7.17
2022-10-22T18:11:51.716Z,10.85
2022-10-22T18:14:20.099Z,5.90
2022-10-22T18:16:47.650Z,6.68
2022-10-22T18:19:17.065Z,5.25
2022-10-22T18:21:44.282Z,10.47
2022-10-22T18:24:13.262Z,7.05
2022-10-22T18:26:40.295Z,7.88
2022-10-22T18:29:08.035Z,6.60
2022-10-22T18:31:35.697Z,6.82
2022-10-22T18:34:02.885Z,7.73
2022-10-22T18:36:29.992Z,8.60
2022-10-22T18:38:58.987Z,7.40
2022-10-22T18:41:27.621Z,8.02
2022-10-22T18:44:02.664Z,7.78
2022-10-22T18:46:30.832Z,6.10
2022-10-22T18:48:58.810Z,5.90
2022-10-22T18:51:30.070Z,9.38
2022-10-22T18:54:11.359Z,7.32
2022-10-22T18:56:44.320Z,6.45
2022-10-22T18:59:22.866Z,7.10
2022-10-22T19:01:51.490Z,6.85
2022-10-22T19:04:18.663Z,4.55
2022-10-22T19:06:46.121Z,5.70
2022-10-22T19:09:16.978Z,5.75
2022-10-22T19:11:44.928Z,8.30
2022-10-22T19:14:13.078Z,6.43
2022-10-22T19:16:40.246Z,5.75
2022-10-22T19:19:08.030Z,7.53
2022-10-22T19:21:35.500Z,6.45
2022-10-22T19:24:02.605Z,5.30
2022-10-22T19:26:30.361Z,7.05
2022-10-22T19:28:58.458Z,4.00
2022-10-22T19:31:26.829Z,4.72
2022-10-22T19:33:55.299Z,5.55
2022-10-22T19:36:27.923Z,5.93
2022-10-22T19:38:55.822Z,6.05
2022-10-22T19:41:25.116Z,8.02
2022-10-22T19:43:53.394Z,4.22
2022-10-22T19:46:21.868Z,5.07
2022-10-22T19:48:51.229Z,5.40
2022-10-22T19:51:20.616Z,4.90
2022-10-22T19:53:48.323Z,4.68
2022-10-22T19:56:18.444Z,6.57
2022-10-22T19:58:45.839Z,5.63
2022-10-22T20:01:15.532Z,6.13
2022-10-22T20:03:42.682Z,7.00
2022-10-22T20:06:11.532Z,6.05
2022-10-22T20:08:39.258Z,6.15
2022-10-22T20:11:12.330Z,6.03
2022-10-22T20:16:11.866Z,6.90
2022-10-22T20:18:38.998Z,5.70
2022-10-22T20:21:07.659Z,6.93
2022-10-22T20:23:35.218Z,8.77
2022-10-22T20:26:02.311Z,5.50
2022-10-22T20:28:29.393Z,5.15
2022-10-22T20:30:56.676Z,5.53
2022-10-22T20:33:23.833Z,8.25
2022-10-22T20:36:00.978Z,7.10
2022-10-22T20:38:28.204Z,6.13
2022-10-22T20:41:06.784Z,5.15
2022-10-22T20:43:34.069Z,5.95
2022-10-22T20:46:01.227Z,9.98
2022-10-22T20:48:31.234Z,6.07
2022-10-22T20:50:59.191Z,9.47
2022-10-22T20:53:27.309Z,4.72
2022-10-22T20:55:57.755Z,8.60
2022-10-22T20:58:26.953Z,7.80
2022-10-22T21:00:54.977Z,7.05
2022-10-22T21:03:22.688Z,6.90
2022-10-22T21:05:50.203Z,8.35
2022-10-22T21:08:17.818Z,6.07
2022-10-22T21:10:46.491Z,6.18
2022-10-22T21:13:14.024Z,5.55
2022-10-22T21:15:41.495Z,7.53
2022-10-22T21:18:09.135Z,5.78
2022-10-22T21:20:36.743Z,7.60
2022-10-22T21:23:04.034Z,9.48
2022-10-22T21:25:31.555Z,7.28
2022-10-22T21:27:58.637Z,7.90
2022-10-22T21:30:25.753Z,8.00
2022-10-22T21:32:56.015Z,7.00
2022-10-22T21:35:23.470Z,9.32
2022-10-22T21:37:50.738Z,5.47
2022-10-22T21:40:17.906Z,7.10
2022-10-22T21:42:44.978Z,5.68
2022-10-22T21:45:13.607Z,6.07
2022-10-22T21:47:42.096Z,5.28
2022-10-22T21:50:09.516Z,6.22
2022-10-22T21:52:36.598Z,6.70
2022-10-22T21:55:03.902Z,9.07
2022-10-22T21:57:31.076Z,7.07
2022-10-22T21:59:58.170Z,6.07
2022-10-22T22:02:27.232Z,10.43
2022-10-22T22:04:54.886Z,4.43
2022-10-22T22:07:22.133Z,6.82
2022-10-22T22:09:52.303Z,5.50
2022-10-22T22:12:20.502Z,7.38
2022-10-22T22:14:47.665Z,7.43
2022-10-22T22:17:16.440Z,8.53
2022-10-22T22:19:43.562Z,6.93
2022-10-22T22:22:10.797Z,6.20
2022-10-22T22:24:39.681Z,7.13
2022-10-22T22:27:06.934Z,7.40
2022-10-22T22:29:34.443Z,6.90
2022-10-22T22:32:01.544Z,7.90
2022-10-22T22:34:28.656Z,5.50
2022-10-22T22:36:55.776Z,5.78
2022-10-22T22:39:24.001Z,7.63
2022-10-22T22:41:51.253Z,8.53
2022-10-22T22:44:18.576Z,8.23
2022-10-22T22:46:45.638Z,7.63
2022-10-22T22:49:13.577Z,6.28
2022-10-22T22:51:40.743Z,10.60
2022-10-22T22:54:08.140Z,8.23
2022-10-22T22:56:35.496Z,5.65
2022-10-22T22:59:03.763Z,7.57
2022-10-22T23:01:38.967Z,7.43
2022-10-22T23:04:19.018Z,5.93
2022-10-22T23:06:46.394Z,5.60
2022-10-22T23:09:15.272Z,4.15
2022-10-22T23:11:43.783Z,5.55
2022-10-22T23:14:14.078Z,5.70
2022-10-22T23:16:45.352Z,5.95
2022-10-22T23:19:14.539Z,6.10
2022-10-22T23:21:45.540Z,6.00
2022-10-22T23:24:15.341Z,9.68
2022-10-22T23:26:45.100Z,6.55
2022-10-22T23:29:21.161Z,6.15
2022-10-22T23:31:48.724Z,6.50
2022-10-22T23:34:21.672Z,6.25
2022-10-22T23:36:49.829Z,6.75
2022-10-22T23:39:19.633Z,7.35
2022-10-22T23:41:46.727Z,6.75
2022-10-22T23:44:13.911Z,5.33
2022-10-22T23:46:41.267Z,6.07
2022-10-22T23:49:09.728Z,6.28
2022-10-22T23:51:37.626Z,5.88
2022-10-22T23:54:11.092Z,4.95
2022-10-22T23:56:38.437Z,6.77
2022-10-22T23:59:05.780Z,8.45
